createdAt,value
2018-04-27T00:02:20.346Z,99.90
2018-04-27T00:04:47.846Z,99.90
2018-04-27T00:07:16.597Z,99.90
2018-04-27T00:09:44.092Z,99.90
2018-04-27T00:12:11.606Z,99.90
2018-04-27T00:14:39.118Z,99.90
2018-04-27T00:17:06.614Z,99.90
2018-04-27T00:19:34.138Z,99.90
2018-04-27T00:22:02.398Z,99.90
2018-04-27T00:24:29.910Z,99.90
2018-04-27T00:26:57.427Z,99.90
2018-04-27T00:29:24.930Z,99.90
2018-04-27T00:31:52.458Z,99.90
2018-04-27T00:34:20.725Z,99.90
2018-04-27T00:36:48.296Z,99.90
2018-04-27T00:39:16.574Z,99.90
2018-04-27T00:41:44.831Z,99.90
2018-04-27T00:44:12.365Z,99.90
2018-04-27T00:46:39.874Z,99.90
2018-04-27T00:49:08.172Z,99.90
2018-04-27T00:51:35.680Z,99.90
2018-04-27T00:54:03.182Z,99.90
2018-04-27T00:56:30.715Z,99.90
2018-04-27T00:58:59.006Z,99.90
2018-04-27T01:01:27.299Z,99.90
2018-04-27T01:03:54.817Z,99.90
2018-04-27T01:06:22.308Z,99.90
2018-04-27T01:08:50.586Z,99.90
2018-04-27T01:11:18.857Z,99.90
2018-04-27T01:13:47.135Z,99.90
2018-04-27T01:16:15.411Z,99.90
2018-04-27T01:18:43.683Z,99.90
2018-04-27T01:21:11.966Z,99.90
2018-04-27T01:23:40.249Z,99.90
2018-04-27T01:26:08.562Z,99.90
2018-04-27T01:28:36.092Z,99.90
2018-04-27T01:31:03.592Z,99.90
2018-04-27T01:33:31.102Z,99.90
2018-04-27T01:35:59.388Z,99.90
2018-04-27T01:38:26.918Z,99.90
2018-04-27T01:40:54.419Z,99.90
2018-04-27T01:43:21.922Z,99.90
2018-04-27T01:45:49.445Z,99.90
2018-04-27T01:48:16.946Z,99.90
2018-04-27T01:50:44.453Z,99.90
2018-04-27T01:53:11.961Z,99.90
2018-04-27T01:55:39.506Z,99.90
2018-04-27T01:58:07.030Z,99.90
2018-04-27T02:00:34.541Z,99.90
2018-04-27T02:03:02.072Z,99.90
2018-04-27T02:05:29.575Z,99.90
2018-04-27T02:07:57.080Z,99.90
2018-04-27T02:10:24.831Z,99.90
2018-04-27T02:12:52.340Z,99.90
2018-04-27T02:15:19.875Z,99.90
2018-04-27T02:17:47.365Z,99.90
2018-04-27T02:20:14.876Z,99.90
2018-04-27T02:22:42.393Z,99.90
2018-04-27T02:25:09.887Z,99.90
2018-04-27T02:27:37.399Z,99.90
2018-04-27T02:30:04.902Z,99.90
2018-04-27T02:32:33.193Z,99.90
2018-04-27T02:35:00.687Z,99.90
2018-04-27T02:37:28.236Z,99.90
2018-04-27T02:39:55.792Z,99.90
2018-04-27T02:42:23.297Z,99.90
2018-04-27T02:44:50.816Z,99.90
2018-04-27T02:47:18.326Z,99.90
2018-04-27T02:49:46.614Z,99.90
2018-04-27T02:52:14.884Z,99.90
2018-04-27T02:54:43.186Z,99.90
2018-04-27T02:57:10.692Z,99.90
2018-04-27T02:59:38.215Z,99.90
2018-04-27T03:02:05.716Z,99.90
2018-04-27T03:04:33.214Z,99.90
2018-04-27T03:07:00.731Z,99.90
2018-04-27T03:09:28.234Z,99.90
2018-04-27T03:11:55.755Z,99.90
2018-04-27T03:14:23.475Z,99.90
2018-04-27T03:16:50.993Z,99.90
2018-04-27T03:19:18.485Z,99.90
2018-04-27T03:21:46.056Z,99.90
2018-04-27T03:24:13.546Z,99.90
2018-04-27T03:26:41.040Z,99.90
2018-04-27T03:29:09.338Z,99.90
2018-04-27T03:31:36.834Z,99.90
2018-04-27T03:34:04.354Z,99.90
2018-04-27T03:36:31.854Z,99.90
2018-04-27T03:38:59.362Z,99.90
2018-04-27T03:41:26.867Z,99.90
2018-04-27T03:43:54.373Z,99.90
2018-04-27T03:46:21.858Z,99.90
2018-04-27T03:48:49.351Z,99.90
2018-04-27T03:51:16.866Z,99.90
2018-04-27T03:53:44.366Z,99.90
2018-04-27T03:56:11.877Z,99.90
2018-04-27T03:58:40.148Z,99.90
2018-04-27T04:01:20.426Z,99.90
2018-04-27T04:03:59.726Z,99.90
2018-04-27T04:06:27.250Z,99.90
2018-04-27T04:08:54.783Z,99.90
2018-04-27T04:11:22.301Z,99.90
2018-04-27T04:13:49.804Z,99.90
2018-04-27T04:16:17.317Z,99.90
2018-04-27T04:18:44.841Z,99.90
2018-04-27T04:21:12.340Z,99.90
2018-04-27T04:23:39.852Z,99.90
2018-04-27T04:26:07.350Z,99.90
2018-04-27T04:28:34.874Z,99.90
2018-04-27T04:31:02.384Z,99.90
2018-04-27T04:33:29.887Z,99.90
2018-04-27T04:35:57.414Z,99.90
2018-04-27T04:38:24.930Z,99.90
2018-04-27T04:40:52.437Z,99.90
2018-04-27T04:43:20.696Z,99.90
2018-04-27T04:45:49.021Z,99.90
2018-04-27T04:48:16.509Z,99.90
2018-04-27T04:50:44.029Z,99.90
2018-04-27T04:53:11.561Z,99.90
2018-04-27T04:55:39.045Z,99.90
2018-04-27T04:58:06.628Z,99.90
2018-04-27T05:00:34.622Z,99.90
2018-04-27T05:03:02.202Z,99.90
2018-04-27T05:05:29.763Z,99.90
2018-04-27T05:07:58.055Z,99.90
2018-04-27T05:10:26.338Z,99.90
2018-04-27T05:12:54.626Z,99.90
2018-04-27T05:15:22.990Z,99.90
2018-04-27T05:17:51.278Z,99.90
2018-04-27T05:20:18.331Z,99.90
2018-04-27T05:22:45.821Z,99.90
2018-04-27T05:25:13.440Z,99.90
2018-04-27T05:27:41.002Z,99.90
2018-04-27T05:30:08.508Z,99.90
2018-04-27T05:32:36.057Z,99.90
2018-04-27T05:35:04.921Z,99.90
2018-04-27T05:37:32.592Z,99.90
2018-04-27T05:40:02.244Z,99.90
2018-04-27T05:42:29.922Z,99.90
2018-04-27T05:44:57.537Z,99.90
2018-04-27T05:47:25.602Z,99.90
2018-04-27T05:49:53.276Z,99.90
2018-04-27T05:52:20.814Z,99.90
2018-04-27T05:54:49.090Z,99.90
2018-04-27T05:57:16.660Z,99.90
2018-04-27T05:59:44.173Z,99.90
2018-04-27T06:02:11.738Z,99.90
2018-04-27T06:04:39.324Z,99.90
2018-04-27T06:07:06.781Z,99.90
2018-04-27T06:09:35.077Z,99.90
2018-04-27T06:12:02.608Z,99.90
2018-04-27T06:14:30.943Z,99.90
2018-04-27T06:16:58.455Z,99.90
2018-04-27T06:19:26.787Z,99.90
2018-04-27T06:21:54.345Z,99.90
2018-04-27T06:24:21.878Z,99.90
2018-04-27T06:26:49.425Z,99.90
2018-04-27T06:29:18.248Z,99.90
2018-04-27T06:31:45.909Z,99.90
2018-04-27T06:34:14.167Z,99.90
2018-04-27T06:36:42.499Z,99.90
2018-04-27T06:39:10.047Z,99.90
2018-04-27T06:41:37.619Z,99.90
2018-04-27T06:44:05.169Z,99.90
2018-04-27T06:46:32.705Z,99.90
2018-04-27T06:49:00.251Z,99.90
2018-04-27T06:51:27.875Z,99.90
2018-04-27T06:53:55.374Z,99.90
2018-04-27T06:56:22.909Z,99.90
2018-04-27T06:58:51.244Z,99.90
2018-04-27T07:01:18.807Z,99.90
2018-04-27T07:03:46.443Z,99.90
2018-04-27T07:06:14.215Z,99.90
2018-04-27T07:08:43.087Z,99.90
2018-04-27T07:11:10.684Z,99.90
2018-04-27T07:13:38.207Z,99.90
2018-04-27T07:16:05.771Z,99.90
2018-04-27T07:18:33.303Z,99.90
2018-04-27T07:21:00.909Z,99.90
2018-04-27T07:23:28.443Z,99.90
2018-04-27T07:25:56.734Z,99.90
2018-04-27T07:28:24.352Z,99.90
2018-04-27T07:30:51.875Z,99.90
2018-04-27T07:33:19.530Z,99.90
2018-04-27T07:35:47.091Z,99.90
2018-04-27T07:38:14.660Z,99.90
2018-04-27T07:40:42.204Z,99.90
2018-04-27T07:43:09.759Z,99.90
2018-04-27T07:45:37.325Z,99.90
2018-04-27T07:48:04.858Z,99.90
2018-04-27T07:50:33.207Z,99.90
2018-04-27T07:53:00.821Z,99.90
2018-04-27T07:55:28.397Z,99.90
2018-04-27T07:57:55.962Z,99.90
2018-04-27T08:00:23.520Z,99.90
2018-04-27T08:02:51.082Z,99.90
2018-04-27T08:05:18.692Z,99.90
2018-04-27T08:07:47.021Z,99.90
2018-04-27T08:10:14.555Z,99.90
2018-04-27T08:12:42.224Z,99.90
2018-04-27T08:15:09.796Z,99.90
2018-04-27T08:17:37.320Z,99.90
2018-04-27T08:20:05.627Z,99.90
2018-04-27T08:22:35.061Z,99.90
2018-04-27T08:25:02.607Z,99.90
2018-04-27T08:27:30.174Z,99.90
2018-04-27T08:29:57.734Z,99.90
2018-04-27T08:32:25.335Z,99.90
2018-04-27T08:34:53.700Z,99.90
2018-04-27T08:37:21.239Z,99.90
2018-04-27T08:39:49.713Z,99.90
2018-04-27T08:42:17.342Z,99.90
2018-04-27T08:44:44.891Z,99.90
2018-04-27T08:47:13.215Z,99.90
2018-04-27T08:49:40.742Z,99.90
2018-04-27T08:52:08.312Z,99.90
2018-04-27T08:54:35.854Z,99.90
2018-04-27T08:57:04.200Z,99.90
2018-04-27T08:59:31.839Z,99.90
2018-04-27T09:01:59.414Z,99.90
2018-04-27T09:04:27.008Z,99.90
2018-04-27T09:06:54.675Z,99.90
2018-04-27T09:09:23.017Z,99.90
2018-04-27T09:11:51.113Z,99.90
2018-04-27T09:14:18.663Z,99.90
2018-04-27T09:16:47.082Z,99.90
2018-04-27T09:19:15.396Z,99.90
2018-04-27T09:21:42.945Z,99.90
2018-04-27T09:24:10.482Z,99.90
2018-04-27T09:26:38.784Z,99.90
2018-04-27T09:29:06.321Z,99.90
2018-04-27T09:31:34.638Z,99.90
2018-04-27T09:34:02.416Z,99.90
2018-04-27T09:36:29.985Z,99.90
2018-04-27T09:38:57.551Z,99.90
2018-04-27T09:41:25.138Z,99.90
2018-04-27T09:43:52.702Z,99.90
2018-04-27T09:46:20.287Z,99.90
2018-04-27T09:48:47.846Z,99.90
2018-04-27T09:51:15.378Z,99.90
2018-04-27T09:53:43.691Z,99.90
2018-04-27T09:56:12.092Z,99.90
2018-04-27T09:58:39.694Z,99.90
2018-04-27T10:01:08.059Z,99.90
2018-04-27T10:03:35.663Z,99.90
2018-04-27T10:06:03.218Z,99.90
2018-04-27T10:08:30.758Z,99.90
2018-04-27T10:10:59.046Z,99.90
2018-04-27T10:13:27.349Z,99.90
2018-04-27T10:15:54.867Z,99.90
2018-04-27T10:18:23.219Z,99.90
2018-04-27T10:20:51.478Z,99.90
2018-04-27T10:23:18.998Z,99.90
2018-04-27T10:25:47.261Z,99.90
2018-04-27T10:28:15.610Z,99.90
2018-04-27T10:30:43.124Z,99.90
2018-04-27T10:33:10.663Z,99.90
2018-04-27T10:35:38.219Z,99.90
2018-04-27T10:38:06.529Z,99.90
2018-04-27T10:40:34.122Z,99.90
2018-04-27T10:43:01.686Z,99.90
2018-04-27T10:45:29.236Z,99.90
2018-04-27T10:47:56.890Z,99.90
2018-04-27T10:50:24.457Z,99.90
2018-04-27T10:52:53.191Z,99.90
2018-04-27T10:55:21.531Z,99.90
2018-04-27T10:57:49.112Z,99.90
2018-04-27T11:00:16.652Z,99.90
2018-04-27T11:02:44.219Z,99.90
2018-04-27T11:05:11.752Z,99.90
2018-04-27T11:07:39.289Z,99.90
2018-04-27T11:10:06.880Z,99.90
2018-04-27T11:12:34.451Z,99.90
2018-04-27T11:15:02.021Z,99.90
2018-04-27T11:17:29.559Z,99.90
2018-04-27T11:19:57.144Z,99.90
2018-04-27T11:22:24.695Z,99.90
2018-04-27T11:24:52.287Z,99.90
2018-04-27T11:27:19.866Z,99.90
2018-04-27T11:29:48.277Z,99.90
2018-04-27T11:32:15.864Z,99.90
2018-04-27T11:34:43.375Z,99.90
2018-04-27T11:37:12.707Z,99.90
2018-04-27T11:39:40.239Z,99.90
2018-04-27T11:42:07.852Z,99.90
2018-04-27T11:44:35.362Z,99.90
2018-04-27T11:47:03.803Z,99.90
2018-04-27T11:49:31.363Z,99.90
2018-04-27T11:51:58.891Z,99.90
2018-04-27T11:54:26.494Z,99.50
2018-04-27T11:56:54.089Z,99.90
2018-04-27T11:59:22.515Z,99.70
2018-04-27T12:01:51.432Z,99.90
2018-04-27T12:04:20.418Z,97.80
2018-04-27T12:06:48.004Z,98.60
2018-04-27T12:09:15.628Z,99.20
2018-04-27T12:11:43.301Z,99.90
2018-04-27T12:14:10.958Z,98.80
2018-04-27T12:16:38.484Z,98.50
2018-04-27T12:19:05.989Z,98.30
2018-04-27T12:21:33.595Z,98.40
2018-04-27T12:24:01.944Z,97.50
2018-04-27T12:26:30.255Z,97.30
2018-04-27T12:28:57.792Z,97.30
2018-04-27T12:31:25.446Z,98.30
2018-04-27T12:33:53.910Z,97.10
2018-04-27T12:36:21.688Z,97.00
2018-04-27T12:38:49.288Z,97.40
2018-04-27T12:41:17.575Z,98.30
2018-04-27T12:43:45.107Z,98.30
2018-04-27T12:46:13.440Z,95.80
2018-04-27T12:48:40.964Z,95.80
2018-04-27T12:51:08.513Z,95.60
2018-04-27T12:53:36.774Z,95.10
2018-04-27T12:56:05.063Z,94.20
2018-04-27T12:58:32.574Z,94.20
2018-04-27T13:01:00.110Z,94.30
2018-04-27T13:03:27.610Z,93.50
2018-04-27T13:05:55.118Z,94.00
2018-04-27T13:08:22.643Z,94.60
2018-04-27T13:10:50.145Z,94.80
2018-04-27T13:13:17.673Z,94.80
2018-04-27T13:15:45.938Z,93.50
2018-04-27T13:18:13.466Z,93.50
2018-04-27T13:20:40.971Z,93.70
2018-04-27T13:23:09.264Z,93.20
2018-04-27T13:25:36.761Z,93.10
2018-04-27T13:28:04.283Z,93.10
2018-04-27T13:30:31.965Z,93.80
2018-04-27T13:32:59.476Z,93.60
2018-04-27T13:35:27.014Z,93.30
2018-04-27T13:37:54.537Z,94.80
2018-04-27T13:40:22.054Z,94.60
2018-04-27T13:42:49.559Z,94.50
2018-04-27T13:45:17.325Z,92.90
2018-04-27T13:47:44.832Z,92.90
2018-04-27T13:50:12.348Z,92.50
2018-04-27T13:52:39.918Z,93.00
2018-04-27T13:55:07.463Z,92.50
2018-04-27T13:57:35.751Z,91.70
2018-04-27T14:00:03.248Z,91.60
2018-04-27T14:02:30.759Z,91.70
2018-04-27T14:04:58.278Z,91.10
2018-04-27T14:07:26.571Z,91.40
2018-04-27T14:09:55.726Z,91.60
2018-04-27T14:12:23.248Z,91.70
2018-04-27T14:14:50.799Z,91.70
2018-04-27T14:17:19.773Z,91.20
2018-04-27T14:19:49.338Z,91.10
2018-04-27T14:22:16.851Z,90.80
2018-04-27T14:24:45.165Z,90.40
2018-04-27T14:27:12.658Z,90.30
2018-04-27T14:29:40.193Z,91.20
2018-04-27T14:32:07.701Z,90.30
2018-04-27T14:34:35.979Z,90.00
2018-04-27T14:37:04.265Z,90.50
2018-04-27T14:39:32.529Z,89.60
2018-04-27T14:42:00.807Z,89.30
2018-04-27T14:44:28.299Z,89.20
2018-04-27T14:46:55.838Z,88.60
2018-04-27T14:49:24.093Z,89.80
2018-04-27T14:51:51.615Z,89.70
2018-04-27T14:54:19.119Z,88.90
2018-04-27T14:56:46.667Z,87.60
2018-04-27T14:59:14.206Z,88.20
2018-04-27T15:01:41.714Z,89.40
2018-04-27T15:04:09.997Z,89.50
2018-04-27T15:06:38.245Z,89.80
2018-04-27T15:09:09.740Z,89.50
2018-04-27T15:11:37.756Z,90.40
2018-04-27T15:14:05.270Z,87.30
2018-04-27T15:16:33.200Z,87.40
2018-04-27T15:19:02.308Z,87.60
2018-04-27T15:21:30.608Z,87.10
2018-04-27T15:23:59.279Z,87.00
2018-04-27T15:26:27.578Z,86.80
2018-04-27T15:28:56.346Z,86.80
2018-04-27T15:31:24.627Z,86.60
2018-04-27T15:33:52.908Z,83.20
2018-04-27T15:36:20.423Z,83.10
2018-04-27T15:38:47.928Z,85.20
2018-04-27T15:41:15.440Z,85.80
2018-04-27T15:43:43.010Z,85.40
2018-04-27T15:46:10.511Z,86.20
2018-04-27T15:48:40.055Z,87.10
2018-04-27T15:51:07.550Z,86.90
2018-04-27T15:53:35.066Z,88.80
2018-04-27T15:56:02.577Z,88.70
2018-04-27T15:58:30.869Z,87.60
2018-04-27T16:00:58.370Z,87.30
2018-04-27T16:03:25.889Z,87.10
2018-04-27T16:05:54.320Z,86.90
2018-04-27T16:08:21.838Z,86.50
2018-04-27T16:10:49.399Z,85.50
2018-04-27T16:16:32.322Z,87.00
2018-04-27T16:19:01.334Z,88.00
2018-04-27T16:21:28.902Z,88.00
2018-04-27T16:23:59.171Z,88.00
2018-04-27T16:26:32.541Z,88.40
2018-04-27T16:29:00.100Z,84.90
2018-04-27T16:31:27.599Z,86.20
2018-04-27T16:33:55.177Z,87.50
2018-04-27T16:36:23.467Z,88.80
2018-04-27T16:38:51.014Z,88.80
2018-04-27T16:41:18.601Z,88.80
2018-04-27T16:43:46.126Z,90.90
2018-04-27T16:46:13.748Z,90.50
2018-04-27T16:48:41.253Z,89.10
2018-04-27T16:51:09.534Z,89.90
2018-04-27T16:53:37.813Z,90.50
2018-04-27T16:56:06.140Z,91.10
2018-04-27T16:58:33.682Z,91.00
2018-04-27T17:01:01.193Z,89.60
2018-04-27T17:03:28.753Z,87.80
2018-04-27T17:05:56.280Z,90.30
2018-04-27T17:08:23.855Z,89.50
2018-04-27T17:10:51.449Z,88.00
2018-04-27T17:13:19.738Z,89.90
2018-04-27T17:15:48.066Z,88.60
2018-04-27T17:18:15.562Z,88.50
2018-04-27T17:20:43.094Z,90.20
2018-04-27T17:23:10.603Z,88.30
2018-04-27T17:25:38.113Z,87.50
2018-04-27T17:28:05.694Z,85.70
2018-04-27T17:30:33.892Z,83.00
2018-04-27T17:33:01.424Z,84.70
2018-04-27T17:35:28.924Z,84.90
2018-04-27T17:37:56.424Z,82.30
2018-04-27T17:40:24.109Z,78.30
2018-04-27T17:42:51.777Z,76.90
2018-04-27T17:45:19.362Z,77.10
2018-04-27T17:47:46.886Z,74.60
2018-04-27T17:50:14.455Z,73.40
2018-04-27T17:52:42.008Z,71.90
2018-04-27T17:55:09.525Z,71.60
2018-04-27T17:57:37.049Z,71.20
2018-04-27T18:00:05.335Z,70.90
2018-04-27T18:02:32.858Z,70.80
2018-04-27T18:05:01.556Z,71.30
2018-04-27T18:07:29.160Z,72.70
2018-04-27T18:10:03.354Z,70.40
2018-04-27T18:12:31.640Z,70.40
2018-04-27T18:14:59.198Z,70.30
2018-04-27T18:17:26.727Z,68.20
2018-04-27T18:19:58.084Z,69.40
2018-04-27T18:22:26.387Z,69.00
2018-04-27T18:24:53.918Z,69.20
2018-04-27T18:27:21.501Z,69.00
2018-04-27T18:29:49.815Z,69.20
2018-04-27T18:32:17.407Z,69.10
2018-04-27T18:34:44.932Z,70.10
2018-04-27T18:37:12.439Z,70.20
2018-04-27T18:39:39.974Z,70.30
2018-04-27T18:42:07.471Z,70.20
2018-04-27T18:44:35.993Z,71.00
2018-04-27T18:47:03.469Z,70.90
2018-04-27T18:49:30.970Z,71.20
2018-04-27T18:51:58.507Z,73.50
2018-04-27T18:54:26.062Z,72.40
2018-04-27T18:56:53.573Z,72.50
2018-04-27T18:59:21.202Z,73.40
2018-04-27T19:01:48.756Z,73.10
2018-04-27T19:04:16.302Z,72.50
2018-04-27T19:06:43.823Z,73.70
2018-04-27T19:09:11.334Z,73.70
2018-04-27T19:11:39.684Z,74.10
2018-04-27T19:14:07.917Z,74.80
2018-04-27T19:16:36.193Z,77.20
2018-04-27T19:19:04.499Z,77.90
2018-04-27T19:21:32.008Z,77.80
2018-04-27T19:23:59.530Z,81.70
2018-04-27T19:26:27.834Z,81.90
2018-04-27T19:28:55.382Z,81.80
2018-04-27T19:31:23.776Z,84.20
2018-04-27T19:33:51.301Z,84.10
2018-04-27T19:36:18.812Z,86.30
2018-04-27T19:38:47.172Z,89.40
2018-04-27T19:41:14.764Z,89.30
2018-04-27T19:43:43.067Z,90.00
2018-04-27T19:46:10.567Z,90.00
2018-04-27T19:48:38.180Z,91.60
2018-04-27T19:51:05.669Z,92.30
2018-04-27T19:53:33.186Z,93.80
2018-04-27T19:56:01.475Z,92.20
2018-04-27T19:58:28.970Z,92.50
2018-04-27T20:00:56.486Z,91.90
2018-04-27T20:03:24.854Z,92.10
2018-04-27T20:05:53.130Z,92.00
2018-04-27T20:08:21.578Z,92.00
2018-04-27T20:10:49.171Z,91.80
2018-04-27T20:13:17.380Z,91.50
2018-04-27T20:15:48.839Z,91.40
2018-04-27T20:18:17.155Z,91.50
2018-04-27T20:20:45.390Z,90.80
2018-04-27T20:23:13.686Z,90.90
2018-04-27T20:25:41.185Z,90.90
2018-04-27T20:28:08.730Z,90.60
2018-04-27T20:30:36.251Z,91.10
2018-04-27T20:33:03.763Z,90.90
2018-04-27T20:35:31.287Z,91.10
2018-04-27T20:38:02.658Z,91.10
2018-04-27T20:40:30.990Z,91.40
2018-04-27T20:43:01.395Z,91.30
2018-04-27T20:45:28.903Z,91.40
2018-04-27T20:47:56.641Z,91.40
2018-04-27T20:50:25.991Z,92.00
2018-04-27T20:52:53.523Z,92.00
2018-04-27T20:55:21.061Z,92.10
2018-04-27T20:57:49.429Z,91.90
2018-04-27T21:00:17.715Z,92.20
2018-04-27T21:02:47.037Z,92.30
2018-04-27T21:05:14.587Z,92.50
2018-04-27T21:07:42.357Z,93.00
2018-04-27T21:10:09.897Z,92.60
2018-04-27T21:12:37.402Z,93.00
2018-04-27T21:15:04.926Z,93.30
2018-04-27T21:17:32.443Z,93.00
2018-04-27T21:20:00.193Z,93.10
2018-04-27T21:22:27.722Z,93.30
2018-04-27T21:24:55.365Z,93.30
2018-04-27T21:27:22.863Z,93.50
2018-04-27T21:29:50.389Z,93.70
2018-04-27T21:32:18.583Z,94.10
2018-04-27T21:34:46.083Z,94.80
2018-04-27T21:37:13.656Z,95.10
2018-04-27T21:39:41.163Z,95.10
2018-04-27T21:42:13.217Z,96.60
2018-04-27T21:44:44.549Z,95.90
2018-04-27T21:47:17.969Z,95.80
2018-04-27T21:49:45.483Z,95.60
2018-04-27T21:52:14.792Z,95.40
2018-04-27T21:54:43.068Z,96.90
2018-04-27T21:57:25.523Z,96.20
2018-04-27T21:59:55.526Z,96.30
2018-04-27T22:08:47.596Z,96.90
2018-04-27T22:11:24.505Z,97.50
2018-04-27T22:13:52.768Z,97.40
2018-04-27T22:16:23.961Z,98.00
2018-04-27T22:18:51.478Z,97.90
2018-04-27T22:21:19.099Z,99.40
2018-04-27T22:23:46.618Z,99.70
2018-04-27T22:26:17.022Z,99.80
2018-04-27T22:28:48.964Z,99.30
2018-04-27T22:31:16.528Z,99.80
2018-04-27T22:33:47.585Z,99.80
2018-04-27T22:36:22.460Z,99.90
2018-04-27T22:42:01.156Z,99.90
2018-04-27T22:44:54.295Z,99.90
2018-04-27T22:47:28.506Z,99.90
2018-04-27T22:49:56.801Z,99.90
2018-04-27T22:52:24.354Z,99.90
2018-04-27T22:54:57.402Z,99.90
2018-04-27T23:00:27.333Z,99.90
2018-04-27T23:02:55.602Z,99.90
2018-04-27T23:05:33.806Z,99.90
2018-04-27T23:08:05.144Z,99.90
2018-04-27T23:10:39.330Z,99.90
2018-04-27T23:13:06.886Z,99.90
2018-04-27T23:15:44.930Z,99.90
2018-04-27T23:18:16.922Z,99.90
2018-04-27T23:20:55.173Z,99.90
2018-04-27T23:23:23.481Z,99.90
2018-04-27T23:25:51.936Z,99.90
2018-04-27T23:28:20.204Z,99.90
2018-04-27T23:30:47.730Z,99.90
2018-04-27T23:33:15.274Z,99.90
2018-04-27T23:35:47.394Z,99.90
2018-04-27T23:38:15.699Z,99.90
2018-04-27T23:40:43.986Z,99.90
2018-04-27T23:43:13.050Z,99.90
2018-04-27T23:45:41.476Z,99.90
2018-04-27T23:48:09.805Z,99.90
2018-04-27T23:50:38.108Z,99.90
2018-04-27T23:53:05.672Z,99.90
2018-04-27T23:55:33.184Z,99.90
2018-04-27T23:58:01.538Z,99.90
